createdAt,value
2019-03-10T00:01:53.178Z,74.41
2019-03-10T00:04:22.684Z,74.39
2019-03-10T00:06:51.613Z,73.38
2019-03-10T00:09:50.352Z,73.47
2019-03-10T00:12:36.556Z,72.69
2019-03-10T00:15:15.544Z,73.53
2019-03-10T00:17:58.073Z,73.85
2019-03-10T00:20:33.265Z,74.02
2019-03-10T00:23:04.606Z,73.73
2019-03-10T00:25:33.868Z,73.72
2019-03-10T00:28:24.779Z,73.09
2019-03-10T00:30:53.624Z,73.07
2019-03-10T00:33:43.603Z,73.68
2019-03-10T00:36:16.448Z,74.25
2019-03-10T00:39:22.269Z,72.93
2019-03-10T00:42:35.155Z,73.31
2019-03-10T00:45:50.143Z,73.76
2019-03-10T00:48:35.059Z,73.02
2019-03-10T00:51:34.323Z,71.23
2019-03-10T00:54:03.181Z,71.36
2019-03-10T00:56:31.823Z,71.59
2019-03-10T00:59:00.454Z,70.55
2019-03-10T01:01:29.101Z,71.12
2019-03-10T01:03:57.738Z,71.09
2019-03-10T01:06:26.448Z,71.92
2019-03-10T01:08:55.144Z,72.46
2019-03-10T01:11:23.967Z,71.86
2019-03-10T01:13:52.659Z,72.29
2019-03-10T01:16:21.364Z,72.72
2019-03-10T01:18:50.125Z,73.25
2019-03-10T01:21:18.926Z,72.68
2019-03-10T01:23:47.624Z,73.01
2019-03-10T01:26:16.260Z,73.22
2019-03-10T01:28:44.910Z,72.97
2019-03-10T01:31:22.578Z,73.13
2019-03-10T01:34:20.543Z,73.00
2019-03-10T01:36:49.257Z,73.51
2019-03-10T01:39:17.886Z,74.05
2019-03-10T01:41:46.519Z,73.95
2019-03-10T01:44:15.226Z,74.13
2019-03-10T01:46:43.900Z,74.75
2019-03-10T01:49:12.506Z,73.99
2019-03-10T01:51:41.149Z,73.86
2019-03-10T01:54:09.809Z,74.48
2019-03-10T01:56:38.463Z,75.05
2019-03-10T01:59:07.086Z,74.22
2019-03-10T02:01:35.711Z,75.02
2019-03-10T02:04:04.347Z,74.71
2019-03-10T02:06:32.977Z,74.77
2019-03-10T02:09:01.647Z,75.03
2019-03-10T02:11:30.317Z,74.58
2019-03-10T02:13:58.937Z,74.30
2019-03-10T02:16:27.589Z,74.58
2019-03-10T02:18:56.222Z,74.51
2019-03-10T02:21:24.897Z,74.75
2019-03-10T02:23:53.674Z,75.52
2019-03-10T02:26:22.304Z,75.31
2019-03-10T02:28:50.912Z,74.78
2019-03-10T02:31:19.622Z,74.82
2019-03-10T02:33:48.251Z,74.76
2019-03-10T02:36:16.891Z,73.84
2019-03-10T02:38:45.528Z,73.98
2019-03-10T02:41:14.161Z,74.69
2019-03-10T02:43:42.804Z,75.11
2019-03-10T02:46:11.512Z,74.95
2019-03-10T02:48:40.169Z,74.84
2019-03-10T02:51:08.878Z,74.50
2019-03-10T02:53:37.502Z,74.54
2019-03-10T02:56:06.260Z,74.67
2019-03-10T02:58:34.918Z,74.65
2019-03-10T03:01:03.536Z,74.76
2019-03-10T03:03:32.176Z,75.04
2019-03-10T03:06:00.825Z,75.16
2019-03-10T03:08:29.536Z,74.85
2019-03-10T03:10:58.244Z,74.83
2019-03-10T03:13:26.887Z,74.86
2019-03-10T03:15:55.525Z,74.89
2019-03-10T03:18:24.156Z,75.06
2019-03-10T03:20:52.776Z,75.28
2019-03-10T03:23:21.499Z,74.62
2019-03-10T03:25:50.106Z,75.23
2019-03-10T03:28:19.056Z,75.46
2019-03-10T03:30:47.757Z,75.50
2019-03-10T03:33:16.379Z,75.45
2019-03-10T03:35:53.390Z,75.36
2019-03-10T03:38:28.167Z,75.79
2019-03-10T03:40:59.927Z,77.16
2019-03-10T03:43:28.635Z,78.52
2019-03-10T03:45:57.413Z,78.93
2019-03-10T03:48:26.038Z,79.75
2019-03-10T03:50:54.685Z,80.04
2019-03-10T03:53:23.307Z,80.86
2019-03-10T03:55:51.954Z,82.03
2019-03-10T03:58:20.646Z,83.04
2019-03-10T04:00:52.849Z,83.58
2019-03-10T04:03:21.530Z,83.59
2019-03-10T04:05:50.155Z,84.65
2019-03-10T04:08:18.770Z,85.24
2019-03-10T04:10:47.418Z,86.78
2019-03-10T04:13:16.113Z,86.80
2019-03-10T04:15:44.754Z,86.88
2019-03-10T04:18:13.379Z,87.21
2019-03-10T04:20:42.005Z,88.65
2019-03-10T04:23:10.618Z,89.34
2019-03-10T04:25:39.257Z,90.33
2019-03-10T04:28:08.019Z,90.49
2019-03-10T04:30:36.655Z,90.44
2019-03-10T04:33:05.347Z,91.20
2019-03-10T04:35:34.041Z,91.42
2019-03-10T04:38:02.660Z,91.84
2019-03-10T04:40:31.280Z,92.13
2019-03-10T04:42:59.905Z,92.35
2019-03-10T04:45:28.597Z,92.77
2019-03-10T04:47:57.200Z,93.34
2019-03-10T04:50:25.821Z,93.61
2019-03-10T04:52:54.455Z,94.51
2019-03-10T04:55:34.949Z,94.85
2019-03-10T04:58:05.935Z,97.63
2019-03-10T05:00:36.009Z,99.80
2019-03-10T05:03:04.738Z,99.79
2019-03-10T05:05:33.431Z,99.15
2019-03-10T05:08:02.065Z,98.51
2019-03-10T05:10:30.676Z,98.16
2019-03-10T05:12:59.322Z,98.08
2019-03-10T05:15:28.105Z,97.56
2019-03-10T05:17:56.743Z,97.27
2019-03-10T05:20:25.377Z,96.49
2019-03-10T05:23:26.690Z,96.70
2019-03-10T05:25:55.406Z,96.84
2019-03-10T05:28:24.116Z,97.23
2019-03-10T05:30:52.725Z,98.40
2019-03-10T05:33:21.342Z,98.31
2019-03-10T05:35:50.048Z,98.39
2019-03-10T05:38:18.688Z,98.15
2019-03-10T05:40:47.295Z,98.08
2019-03-10T05:43:16.053Z,97.97
2019-03-10T05:45:44.682Z,98.45
2019-03-10T05:48:13.316Z,98.63
2019-03-10T05:50:41.924Z,99.45
2019-03-10T05:53:10.676Z,99.71
2019-03-10T05:55:39.288Z,99.57
2019-03-10T05:58:07.922Z,99.35
2019-03-10T06:00:42.558Z,100.00
2019-03-10T06:03:07.081Z,100.00
2019-03-10T06:05:35.731Z,100.00
2019-03-10T06:08:04.451Z,100.00
2019-03-10T06:10:33.101Z,100.00
2019-03-10T06:13:01.805Z,100.00
2019-03-10T06:15:30.500Z,100.00
2019-03-10T06:17:59.141Z,100.00
2019-03-10T06:20:27.786Z,100.00
2019-03-10T06:22:56.436Z,100.00
2019-03-10T06:25:25.163Z,100.00
2019-03-10T06:27:53.871Z,100.00
2019-03-10T06:30:22.541Z,100.00
2019-03-10T06:32:51.243Z,100.00
2019-03-10T06:35:19.938Z,100.00
2019-03-10T06:37:48.630Z,100.00
2019-03-10T06:40:17.323Z,100.00
2019-03-10T06:42:45.953Z,100.00
2019-03-10T06:45:14.589Z,100.00
2019-03-10T06:47:43.199Z,100.00
2019-03-10T06:50:12.498Z,100.00
2019-03-10T06:52:41.345Z,100.00
2019-03-10T06:55:10.164Z,100.00
2019-03-10T06:57:38.783Z,100.00
2019-03-10T07:00:09.155Z,100.00
2019-03-10T07:02:37.806Z,100.00
2019-03-10T07:05:08.164Z,100.00
2019-03-10T07:07:36.876Z,100.00
2019-03-10T07:10:06.538Z,100.00
2019-03-10T07:12:35.206Z,100.00
2019-03-10T07:15:04.081Z,100.00
2019-03-10T07:17:32.796Z,100.00
2019-03-10T07:20:01.428Z,100.00
2019-03-10T07:22:30.070Z,100.00
2019-03-10T07:24:58.700Z,100.00
2019-03-10T07:27:34.375Z,100.00
2019-03-10T07:30:11.114Z,100.00
2019-03-10T07:33:00.872Z,100.00
2019-03-10T07:35:46.759Z,100.00
2019-03-10T07:38:21.595Z,100.00
2019-03-10T07:40:58.178Z,100.00
2019-03-10T07:43:50.989Z,100.00
2019-03-10T07:46:38.642Z,100.00
2019-03-10T07:49:18.059Z,100.00
2019-03-10T07:52:05.215Z,100.00
2019-03-10T07:54:41.332Z,100.00
2019-03-10T07:57:27.787Z,100.00
2019-03-10T08:00:05.425Z,100.00
2019-03-10T08:02:39.841Z,100.00
2019-03-10T08:05:23.793Z,100.00
2019-03-10T08:08:00.999Z,100.00
2019-03-10T08:10:59.950Z,100.00
2019-03-10T08:13:51.733Z,100.00
2019-03-10T08:16:50.311Z,100.00
2019-03-10T08:19:40.334Z,100.00
2019-03-10T08:23:02.050Z,100.00
2019-03-10T08:25:49.838Z,100.00
2019-03-10T08:28:43.783Z,100.00
2019-03-10T08:31:47.476Z,100.00
2019-03-10T08:34:39.651Z,100.00
2019-03-10T08:37:26.781Z,100.00
2019-03-10T08:40:10.284Z,100.00
2019-03-10T08:43:03.928Z,100.00
2019-03-10T08:45:51.841Z,100.00
2019-03-10T08:48:39.791Z,100.00
2019-03-10T08:51:26.121Z,100.00
2019-03-10T08:54:11.928Z,100.00
2019-03-10T08:57:03.540Z,100.00
2019-03-10T08:59:45.485Z,100.00
2019-03-10T09:02:36.363Z,100.00
2019-03-10T09:05:28.069Z,100.00
2019-03-10T09:08:11.958Z,100.00
2019-03-10T09:10:48.302Z,100.00
2019-03-10T09:13:38.306Z,100.00
2019-03-10T09:16:17.018Z,100.00
2019-03-10T09:19:03.365Z,100.00
2019-03-10T09:21:57.045Z,100.00
2019-03-10T09:24:33.612Z,100.00
2019-03-10T09:27:24.091Z,100.00
2019-03-10T09:30:04.545Z,100.00
2019-03-10T09:33:04.680Z,100.00
2019-03-10T09:35:52.411Z,100.00
2019-03-10T09:38:28.763Z,100.00
2019-03-10T09:41:04.420Z,100.00
2019-03-10T09:43:50.845Z,100.00
2019-03-10T09:46:38.492Z,100.00
2019-03-10T09:49:18.399Z,100.00
2019-03-10T09:52:05.034Z,100.00
2019-03-10T09:54:52.739Z,100.00
2019-03-10T09:57:35.438Z,100.00
2019-03-10T10:00:30.179Z,100.00
2019-03-10T10:03:17.905Z,100.00
2019-03-10T10:06:17.698Z,100.00
2019-03-10T10:08:52.709Z,100.00
2019-03-10T10:11:38.989Z,100.00
2019-03-10T10:14:13.165Z,100.00
2019-03-10T10:17:00.980Z,100.00
2019-03-10T10:19:47.187Z,100.00
2019-03-10T10:22:29.555Z,100.00
2019-03-10T10:25:16.098Z,100.00
2019-03-10T10:28:15.626Z,100.00
2019-03-10T10:31:15.337Z,100.00
2019-03-10T10:34:01.499Z,99.88
2019-03-10T10:36:46.683Z,99.39
2019-03-10T10:39:32.906Z,98.62
2019-03-10T10:42:23.352Z,96.30
2019-03-10T10:45:10.980Z,92.98
2019-03-10T10:47:57.259Z,89.52
2019-03-10T10:50:37.627Z,89.07
2019-03-10T10:53:23.854Z,90.40
2019-03-10T10:56:17.541Z,90.13
2019-03-10T10:58:56.530Z,91.53
2019-03-10T11:01:49.983Z,93.52
2019-03-10T11:04:43.545Z,92.18
2019-03-10T11:07:21.548Z,89.49
2019-03-10T11:10:09.273Z,89.88
2019-03-10T11:12:52.549Z,90.55
2019-03-10T11:15:46.003Z,89.02
2019-03-10T11:18:32.168Z,87.62
2019-03-10T11:21:13.359Z,86.83
2019-03-10T11:23:49.128Z,84.63
2019-03-10T11:26:45.591Z,84.10
2019-03-10T11:29:32.795Z,84.65
2019-03-10T11:32:19.407Z,85.29
2019-03-10T11:35:09.889Z,84.64
2019-03-10T11:37:45.424Z,85.72
2019-03-10T11:40:31.654Z,84.87
2019-03-10T11:43:05.249Z,85.74
2019-03-10T11:46:07.978Z,86.11
2019-03-10T11:48:54.150Z,85.33
2019-03-10T11:51:47.628Z,84.35
2019-03-10T11:54:38.400Z,80.72
2019-03-10T11:57:31.887Z,79.71
2019-03-10T12:00:18.130Z,72.70
2019-03-10T12:03:06.067Z,70.69
2019-03-10T12:05:50.438Z,68.71
2019-03-10T12:08:43.892Z,68.84
2019-03-10T12:11:12.701Z,69.83
2019-03-10T12:13:41.324Z,78.34
2019-03-10T12:16:09.966Z,86.60
2019-03-10T12:18:38.647Z,82.90
2019-03-10T12:21:07.412Z,79.48
2019-03-10T12:23:36.127Z,79.56
2019-03-10T12:26:04.810Z,78.35
2019-03-10T12:28:33.444Z,77.90
2019-03-10T12:31:02.055Z,81.06
2019-03-10T12:33:30.767Z,84.60
2019-03-10T12:35:59.465Z,87.73
2019-03-10T12:38:28.202Z,83.63
2019-03-10T12:40:56.870Z,79.79
2019-03-10T12:43:25.474Z,79.23
2019-03-10T12:45:54.122Z,73.87
2019-03-10T12:48:25.740Z,72.89
2019-03-10T12:50:54.365Z,71.44
2019-03-10T12:53:23.062Z,67.05
2019-03-10T12:55:51.624Z,67.03
2019-03-10T12:58:20.233Z,68.91
2019-03-10T13:00:48.924Z,68.55
2019-03-10T13:03:17.614Z,68.59
2019-03-10T13:05:46.274Z,68.29
2019-03-10T13:08:15.030Z,70.71
2019-03-10T13:10:43.641Z,66.09
2019-03-10T13:13:12.255Z,64.91
2019-03-10T13:15:40.911Z,63.56
2019-03-10T13:18:09.523Z,64.90
2019-03-10T13:20:38.175Z,65.95
2019-03-10T13:23:06.778Z,63.67
2019-03-10T13:25:35.528Z,62.19
2019-03-10T13:28:04.103Z,59.68
2019-03-10T13:30:32.789Z,59.52
2019-03-10T13:33:01.386Z,57.77
2019-03-10T13:35:30.154Z,57.68
2019-03-10T13:37:58.768Z,57.73
2019-03-10T13:40:27.396Z,54.49
2019-03-10T13:42:56.046Z,53.37
2019-03-10T13:45:24.794Z,49.36
2019-03-10T13:47:53.471Z,49.66
2019-03-10T13:50:22.152Z,49.21
2019-03-10T13:52:50.797Z,50.71
2019-03-10T13:55:19.464Z,47.98
2019-03-10T13:57:48.189Z,46.45
2019-03-10T14:00:20.342Z,45.76
2019-03-10T14:02:49.095Z,45.62
2019-03-10T14:05:17.746Z,46.19
2019-03-10T14:07:46.478Z,45.66
2019-03-10T14:10:15.254Z,46.79
2019-03-10T14:12:43.926Z,47.55
2019-03-10T14:15:12.637Z,47.72
2019-03-10T14:17:41.352Z,48.37
2019-03-10T14:20:10.003Z,49.11
2019-03-10T14:22:38.633Z,46.07
2019-03-10T14:25:07.384Z,45.07
2019-03-10T14:27:36.255Z,45.93
2019-03-10T14:30:05.540Z,46.26
2019-03-10T14:32:34.526Z,46.71
2019-03-10T14:35:03.239Z,47.55
2019-03-10T14:37:36.211Z,46.91
2019-03-10T14:40:05.626Z,46.91
2019-03-10T14:42:34.475Z,48.61
2019-03-10T14:45:03.484Z,48.58
2019-03-10T14:47:32.112Z,48.76
2019-03-10T14:50:00.823Z,48.62
2019-03-10T14:52:58.396Z,48.88
2019-03-10T14:55:27.976Z,50.11
2019-03-10T14:58:00.551Z,48.79
2019-03-10T15:00:49.909Z,48.24
2019-03-10T15:03:20.473Z,48.60
2019-03-10T15:05:49.936Z,48.15
2019-03-10T15:08:20.749Z,49.32
2019-03-10T15:11:12.019Z,49.62
2019-03-10T15:13:42.336Z,49.37
2019-03-10T15:16:11.142Z,48.07
2019-03-10T15:18:40.972Z,48.31
2019-03-10T15:21:14.853Z,47.23
2019-03-10T15:23:44.721Z,46.99
2019-03-10T15:26:14.345Z,45.72
2019-03-10T15:28:45.239Z,47.50
2019-03-10T15:31:14.024Z,45.88
2019-03-10T15:33:47.225Z,45.18
2019-03-10T15:36:20.985Z,43.30
2019-03-10T15:38:50.076Z,44.86
2019-03-10T15:41:21.809Z,44.11
2019-03-10T15:43:53.945Z,43.81
2019-03-10T15:46:23.807Z,45.37
2019-03-10T15:48:59.072Z,44.01
2019-03-10T15:51:39.339Z,44.40
2019-03-10T15:54:26.875Z,43.74
2019-03-10T15:56:56.642Z,43.34
2019-03-10T15:59:26.360Z,42.83
2019-03-10T16:01:57.098Z,43.35
2019-03-10T16:04:32.510Z,44.20
2019-03-10T16:07:07.354Z,43.97
2019-03-10T16:09:39.302Z,43.34
2019-03-10T16:12:08.265Z,44.33
2019-03-10T16:14:43.640Z,44.44
2019-03-10T16:17:14.085Z,44.38
2019-03-10T16:19:43.605Z,44.12
2019-03-10T16:22:12.747Z,43.64
2019-03-10T16:24:44.937Z,45.60
2019-03-10T16:27:15.103Z,43.99
2019-03-10T16:29:47.135Z,43.35
2019-03-10T16:32:20.892Z,44.99
2019-03-10T16:37:43.873Z,43.72
2019-03-10T16:40:13.600Z,44.14
2019-03-10T16:42:42.348Z,44.14
2019-03-10T16:45:16.545Z,44.12
2019-03-10T16:47:45.294Z,44.14
2019-03-10T16:50:15.040Z,44.97
2019-03-10T16:52:43.692Z,45.04
2019-03-10T16:55:12.451Z,44.12
2019-03-10T17:00:23.749Z,43.95
2019-03-10T17:02:52.552Z,42.88
2019-03-10T17:05:21.240Z,42.32
2019-03-10T17:07:50.476Z,42.75
2019-03-10T17:10:22.509Z,41.41
2019-03-10T17:12:51.310Z,41.56
2019-03-10T17:15:20.110Z,41.39
2019-03-10T17:17:48.835Z,41.79
2019-03-10T17:20:17.789Z,41.61
2019-03-10T17:22:46.651Z,39.64
2019-03-10T17:25:15.394Z,40.81
2019-03-10T17:27:44.203Z,39.79
2019-03-10T17:30:16.378Z,41.60
2019-03-10T17:32:45.192Z,42.67
2019-03-10T17:35:14.228Z,41.78
2019-03-10T17:37:42.985Z,42.15
2019-03-10T17:40:13.965Z,43.21
2019-03-10T17:42:42.672Z,42.46
2019-03-10T17:45:17.026Z,42.58
2019-03-10T17:47:48.919Z,43.02
2019-03-10T17:50:24.426Z,43.39
2019-03-10T17:52:54.738Z,43.17
2019-03-10T17:55:30.358Z,53.29
2019-03-10T17:57:59.547Z,59.23
2019-03-10T18:00:29.558Z,62.49
2019-03-10T18:03:02.057Z,65.92
2019-03-10T18:05:31.352Z,70.10
2019-03-10T18:08:00.161Z,75.24
2019-03-10T18:10:29.066Z,76.90
2019-03-10T18:13:03.794Z,80.33
2019-03-10T18:15:32.801Z,79.80
2019-03-10T18:18:04.396Z,81.06
2019-03-10T18:23:25.366Z,80.71
2019-03-10T18:25:56.126Z,78.66
2019-03-10T18:28:26.183Z,78.82
2019-03-10T18:30:55.186Z,80.45
2019-03-10T18:33:23.989Z,81.28
2019-03-10T18:35:53.098Z,80.33
2019-03-10T18:38:22.007Z,81.03
2019-03-10T18:40:54.726Z,80.54
2019-03-10T18:43:25.226Z,80.10
2019-03-10T18:45:59.395Z,79.17
2019-03-10T18:48:29.589Z,78.35
2019-03-10T18:51:00.232Z,78.68
2019-03-10T18:53:30.292Z,76.89
2019-03-10T18:56:00.453Z,75.68
2019-03-10T18:58:31.228Z,75.47
2019-03-10T19:01:02.684Z,74.89
2019-03-10T19:03:34.964Z,74.60
2019-03-10T19:06:03.823Z,74.35
2019-03-10T19:08:34.676Z,74.33
2019-03-10T19:11:06.575Z,74.67
2019-03-10T19:13:35.829Z,73.64
2019-03-10T19:16:07.560Z,74.60
2019-03-10T19:18:37.456Z,74.77
2019-03-10T19:21:08.324Z,74.15
2019-03-10T19:23:38.524Z,73.11
2019-03-10T19:26:11.132Z,72.88
2019-03-10T19:28:43.326Z,73.26
2019-03-10T19:31:17.722Z,72.21
2019-03-10T19:33:47.354Z,72.04
2019-03-10T19:36:18.072Z,73.36
2019-03-10T19:39:06.804Z,72.35
2019-03-10T19:41:36.414Z,72.72
2019-03-10T19:44:21.080Z,71.95
2019-03-10T19:47:08.117Z,70.50
2019-03-10T19:49:37.387Z,71.63
2019-03-10T19:52:17.337Z,70.38
2019-03-10T19:54:48.326Z,69.30
2019-03-10T19:57:17.958Z,70.26
2019-03-10T19:59:49.007Z,70.22
2019-03-10T20:02:18.464Z,69.09
2019-03-10T20:04:49.588Z,69.51
2019-03-10T20:07:21.753Z,68.28
2019-03-10T20:09:55.404Z,68.13
2019-03-10T20:12:27.856Z,68.67
2019-03-10T20:14:58.770Z,69.18
2019-03-10T20:17:30.777Z,72.75
2019-03-10T20:20:17.243Z,71.39
2019-03-10T20:22:48.096Z,71.57
2019-03-10T20:25:18.430Z,71.30
2019-03-10T20:27:47.805Z,74.03
2019-03-10T20:30:19.608Z,75.11
2019-03-10T20:32:51.748Z,74.96
2019-03-10T20:35:35.521Z,76.78
2019-03-10T20:38:06.359Z,76.65
2019-03-10T20:40:35.995Z,77.06
2019-03-10T20:43:24.860Z,76.61
2019-03-10T20:45:55.059Z,75.97
2019-03-10T20:49:05.136Z,75.75
2019-03-10T20:51:42.290Z,75.38
2019-03-10T20:54:11.391Z,75.52
2019-03-10T20:56:55.056Z,75.99
2019-03-10T20:59:27.385Z,76.14
2019-03-10T21:01:58.802Z,75.93
2019-03-10T21:04:27.630Z,76.02
2019-03-10T21:06:57.607Z,76.30
2019-03-10T21:09:27.459Z,75.59
2019-03-10T21:11:58.692Z,75.86
2019-03-10T21:14:30.326Z,76.65
2019-03-10T21:17:02.664Z,75.79
2019-03-10T21:19:33.738Z,76.20
2019-03-10T21:22:05.691Z,76.09
2019-03-10T21:24:55.603Z,77.32
2019-03-10T21:27:27.013Z,77.26
2019-03-10T21:29:58.692Z,78.23
2019-03-10T21:32:29.183Z,78.48
2019-03-10T21:35:00.441Z,78.49
2019-03-10T21:37:37.459Z,78.51
2019-03-10T21:43:14.031Z,77.26
2019-03-10T21:45:46.305Z,77.33
2019-03-10T21:48:20.444Z,75.39
2019-03-10T21:50:55.458Z,74.11
2019-03-10T21:53:24.822Z,74.83
2019-03-10T21:55:53.669Z,74.63
2019-03-10T21:58:33.421Z,75.01
2019-03-10T22:01:02.160Z,75.43
2019-03-10T22:03:31.448Z,75.32
2019-03-10T22:06:02.182Z,75.24
2019-03-10T22:08:31.404Z,75.75
2019-03-10T22:11:02.406Z,76.34
2019-03-10T22:13:31.466Z,76.55
2019-03-10T22:16:02.875Z,76.35
2019-03-10T22:18:32.300Z,76.40
2019-03-10T22:21:01.182Z,75.78
2019-03-10T22:23:58.815Z,78.27
2019-03-10T22:26:26.506Z,82.90
2019-03-10T22:28:56.099Z,87.02
2019-03-10T22:31:24.848Z,88.04
2019-03-10T22:33:55.775Z,89.88
2019-03-10T22:36:29.319Z,91.96
2019-03-10T22:39:00.293Z,94.86
2019-03-10T22:42:18.519Z,95.23
2019-03-10T22:44:24.920Z,96.91
2019-03-10T22:47:54.310Z,98.14
2019-03-10T22:50:23.151Z,98.70
2019-03-10T22:52:55.155Z,98.39
2019-03-10T22:55:25.975Z,98.03
2019-03-10T22:58:05.673Z,97.64
2019-03-10T23:00:58.655Z,98.37
2019-03-10T23:03:33.721Z,98.23
2019-03-10T23:06:03.183Z,97.24
2019-03-10T23:08:35.321Z,96.33
2019-03-10T23:11:04.483Z,96.27
2019-03-10T23:14:10.576Z,95.40
2019-03-10T23:16:54.207Z,95.34
2019-03-10T23:19:50.707Z,93.28
2019-03-10T23:22:19.415Z,93.09
2019-03-10T23:24:48.148Z,92.55
2019-03-10T23:27:16.787Z,91.97
2019-03-10T23:29:45.385Z,91.08
2019-03-10T23:32:14.039Z,91.39
2019-03-10T23:34:42.672Z,91.33
2019-03-10T23:37:11.336Z,90.95
2019-03-10T23:39:39.954Z,88.34
2019-03-10T23:42:08.635Z,89.33
2019-03-10T23:44:37.264Z,89.94
2019-03-10T23:47:05.983Z,89.91
2019-03-10T23:49:34.619Z,89.44
2019-03-10T23:52:03.270Z,88.89
2019-03-10T23:54:31.906Z,88.78
2019-03-10T23:57:00.659Z,89.04
2019-03-10T23:59:29.352Z,89.38
